Terminal Aerodrome Forecast
Issued by NWS Cleveland, OH

Home | Current Version | Previous Version | Graphics & Text | Print | Product List | Glossary On
Versions: 1 2 3 4 5 6 7 8 9 10 11 12 13 14 15 16 17 18 19 20 21 22 23 24 25 26 27
000
FTUS41 KCLE 221300 AAA
TAFMFD
TAF AMD
KMFD 221324Z 2213/2312 VRB03KT P6SM SCT025
      TEMPO 2214/2216 OVC025
     FM221900 VRB04KT P6SM VCTS SCT035 OVC045CB
     FM230300 VRB03KT 4SM BR FEW015 BKN150
     FM230800 VRB03KT 1/2SM FG BKN003=

USA.gov is the U.S. government's official web portal to all federal, state and local government web resources and services.